Time;durP1;ratioP1;P1;durP2;ratioP2;P2;SDS_P1;SDS_P2;PMS_P1;PMS_P2;Temp;Humidity;BMP_temperature;BMP_pressure;BME280_temperature;BME280_humidity;BME280_pressure;Samples;Min_cycle;Max_cycle;Signal;HPM_P1;HPM_P2
2022/03/03 00:01:59;;;;;;;16.98;10.82;;;;;;;0.23;59.94;94615.41;5070013;28;20039;-78
2022/03/03 00:04:25;;;;;;;16.55;11.82;;;;;;;0.21;59.82;94627.41;5070429;28;20024;-77
2022/03/03 00:06:50;;;;;;;15.15;10.85;;;;;;;0.30;60.78;94628.72;5087158;28;20032;-77
2022/03/03 00:09:16;;;;;;;18.45;12.02;;;;;;;0.16;60.25;94614.03;5087327;28;20033;-77
2022/03/03 00:11:41;;;;;;;17.08;11.65;;;;;;;0.21;60.34;94617.19;5071075;28;20037;-77
2022/03/03 00:14:06;;;;;;;17.08;11.50;;;;;;;0.16;60.34;94603.81;5054666;28;20406;-77
2022/03/03 00:16:32;;;;;;;16.52;11.50;;;;;;;0.25;60.25;94615.31;5070296;28;20094;-77
2022/03/03 00:18:58;;;;;;;16.45;11.43;;;;;;;0.21;60.00;94606.97;5071708;28;20028;-77
2022/03/03 00:21:23;;;;;;;19.10;11.50;;;;;;;0.35;60.12;94609.72;5062970;28;20031;-77
2022/03/03 00:23:49;;;;;;;16.45;11.27;;;;;;;0.35;60.37;94599.50;5091822;28;20035;-77
2022/03/03 00:26:14;;;;;;;16.02;10.38;;;;;;;0.39;60.07;94606.13;5090181;28;20036;-77
2022/03/03 00:28:40;;;;;;;18.23;11.25;;;;;;;0.38;60.19;94609.56;5090333;28;20024;-77
2022/03/03 00:31:05;;;;;;;17.65;11.27;;;;;;;0.24;59.71;94596.63;5091316;28;20085;-77
2022/03/03 00:33:31;;;;;;;17.83;10.80;;;;;;;0.18;59.60;94607.13;5089560;28;20521;-77
2022/03/03 00:35:56;;;;;;;15.05;9.93;;;;;;;0.07;60.53;94596.56;5073156;28;20036;-77
2022/03/03 00:38:22;;;;;;;14.77;10.45;;;;;;;0.16;59.97;94599.50;5089879;28;20048;-77
2022/03/03 00:40:47;;;;;;;15.43;10.23;;;;;;;0.23;60.40;94594.97;5090085;28;20039;-78
2022/03/03 00:43:13;;;;;;;17.75;11.27;;;;;;;0.22;59.81;94583.94;5054592;28;20214;-77
2022/03/03 00:45:38;;;;;;;15.70;10.55;;;;;;;0.31;60.28;94595.44;5069883;28;20040;-77
2022/03/03 00:48:04;;;;;;;16.63;11.40;;;;;;;0.30;60.51;94601.44;5053085;28;20056;-77
2022/03/03 00:50:29;;;;;;;17.52;11.23;;;;;;;0.31;59.96;94607.41;5053317;28;20525;-77
2022/03/03 00:52:55;;;;;;;17.30;11.25;;;;;;;0.31;59.87;94598.00;5053811;28;20021;-76
2022/03/03 00:55:20;;;;;;;14.85;10.90;;;;;;;0.30;59.79;94596.31;5070719;28;20048;-77
2022/03/03 00:57:46;;;;;;;16.67;10.63;;;;;;;0.29;60.37;94604.91;5069665;28;20062;-77
2022/03/03 01:00:12;;;;;;;16.73;11.82;;;;;;;0.29;60.27;94598.97;5070893;28;20025;-77
2022/03/03 01:02:37;;;;;;;19.08;11.50;;;;;;;0.13;60.24;94593.72;5062822;28;20460;-77
2022/03/03 01:05:03;;;;;;;19.45;11.13;;;;;;;0.11;60.44;94593.81;5069569;28;20032;-77
2022/03/03 01:07:28;;;;;;;16.92;11.82;;;;;;;0.26;60.84;94596.56;5072012;28;20032;-77
2022/03/03 01:09:54;;;;;;;16.67;11.15;;;;;;;0.20;61.29;94595.94;5089863;28;20494;-77
2022/03/03 01:12:19;;;;;;;16.42;10.93;;;;;;;0.27;60.75;94596.47;5090792;28;20448;-77
2022/03/03 01:14:45;;;;;;;17.08;11.85;;;;;;;0.35;61.68;94594.38;5090038;28;20032;-77
2022/03/03 01:17:10;;;;;;;14.45;11.50;;;;;;;0.36;60.61;94596.06;5078034;28;20021;-77
2022/03/03 01:19:36;;;;;;;18.00;11.65;;;;;;;0.32;60.97;94594.53;5069910;28;20033;-77
2022/03/03 01:22:01;;;;;;;16.77;10.77;;;;;;;0.32;61.13;94586.03;5053671;28;20036;-76
2022/03/03 01:24:27;;;;;;;15.40;10.93;;;;;;;0.37;60.76;94582.38;5088340;28;20039;-77
2022/03/03 01:26:52;;;;;;;15.98;10.70;;;;;;;0.42;60.51;94589.84;5089535;28;20032;-76
2022/03/03 01:29:17;;;;;;;18.27;12.13;;;;;;;0.43;60.60;94581.25;5073296;28;20028;-76
2022/03/03 01:31:43;;;;;;;16.52;11.75;;;;;;;0.48;61.25;94584.44;5052625;28;20028;-77
2022/03/03 01:34:08;;;;;;;18.70;12.18;;;;;;;0.52;60.38;94580.81;5069397;28;20109;-77
2022/03/03 01:36:34;;;;;;;15.73;11.52;;;;;;;0.44;61.63;94583.72;5074968;28;20548;-77
2022/03/03 01:39:00;;;;;;;15.82;11.27;;;;;;;0.42;61.45;94565.09;5089457;28;20488;-76
2022/03/03 01:41:25;;;;;;;18.40;12.38;;;;;;;0.48;60.70;94565.72;5089595;28;20085;-76
2022/03/03 01:43:50;;;;;;;20.17;12.77;;;;;;;0.32;61.03;94558.75;5072694;28;20025;-77
2022/03/03 01:46:16;;;;;;;18.00;11.95;;;;;;;0.46;60.95;94562.41;5090843;28;20058;-77
2022/03/03 01:48:43;;;;;;;16.98;12.15;;;;;;;0.47;61.34;94566.59;5071064;28;20082;-76
2022/03/03 01:51:08;;;;;;;19.23;12.60;;;;;;;0.44;60.99;94567.56;5090515;28;20494;-76
2022/03/03 01:53:34;;;;;;;18.98;11.82;;;;;;;0.38;61.82;94567.88;5074932;28;20031;-77
2022/03/03 01:55:59;;;;;;;18.23;12.18;;;;;;;0.34;61.33;94561.25;5052317;28;20029;-76
2022/03/03 01:58:25;;;;;;;18.27;12.50;;;;;;;0.21;61.29;94572.03;5052270;28;20040;-76
2022/03/03 02:00:51;;;;;;;19.08;12.77;;;;;;;0.20;62.01;94569.56;5070146;28;20414;-76
2022/03/03 02:03:16;;;;;;;18.15;12.48;;;;;;;0.13;61.70;94563.88;5070048;28;20032;-76
2022/03/03 02:05:42;;;;;;;17.63;13.05;;;;;;;0.19;62.04;94562.78;5068980;28;20150;-76
2022/03/03 02:08:07;;;;;;;20.98;13.07;;;;;;;0.15;62.00;94561.28;5069021;28;20032;-76
2022/03/03 02:10:32;;;;;;;17.92;12.57;;;;;;;0.20;61.96;94559.34;5052660;28;20059;-76
2022/03/03 02:12:58;;;;;;;17.50;12.43;;;;;;;0.27;62.19;94559.88;5073157;28;20418;-76
2022/03/03 02:15:23;;;;;;;19.35;12.00;;;;;;;0.31;61.87;94562.22;5074684;28;20037;-76
2022/03/03 02:17:49;;;;;;;17.65;12.63;;;;;;;0.26;62.02;94561.59;5073798;28;20070;-76
2022/03/03 02:20:25;;;;;;;20.00;13.02;;;;;;;0.22;61.64;94553.25;5055789;28;20041;-77
2022/03/03 02:22:52;;;;;;;20.95;13.25;;;;;;;0.34;62.19;94556.97;5087233;28;20028;-76
2022/03/03 02:25:17;;;;;;;19.98;12.98;;;;;;;0.27;61.71;94559.88;5092612;28;20472;-76
2022/03/03 02:27:43;;;;;;;21.98;13.02;;;;;;;0.33;61.40;94549.34;5058929;28;20032;-76
2022/03/03 02:30:09;;;;;;;20.48;13.82;;;;;;;0.43;61.66;94564.19;5092374;28;20063;-76
2022/03/03 02:32:35;;;;;;;20.30;13.60;;;;;;;0.46;61.80;94555.56;5091915;28;20063;-76
2022/03/03 02:35:00;;;;;;;19.85;13.23;;;;;;;0.37;61.43;94556.81;5092065;28;20509;-76
2022/03/03 02:37:34;;;;;;;16.88;12.52;;;;;;;0.42;61.97;94560.00;5093749;28;20025;-76
2022/03/03 02:39:59;;;;;;;18.60;13.20;;;;;;;0.40;62.57;94566.06;5075709;28;20060;-76
2022/03/03 02:42:24;;;;;;;20.52;13.95;;;;;;;0.37;62.08;94564.47;5064770;28;20028;-76
2022/03/03 02:44:50;;;;;;;19.77;12.85;;;;;;;0.33;62.64;94555.28;5073016;28;20036;-76
2022/03/03 02:47:15;;;;;;;20.13;13.65;;;;;;;0.40;62.17;94560.97;5071799;28;20021;-76
2022/03/03 02:49:41;;;;;;;19.40;13.18;;;;;;;0.46;61.93;94552.19;5071826;28;20098;-76
2022/03/03 02:52:06;;;;;;;20.17;12.88;;;;;;;0.50;62.35;94562.16;5055030;28;20028;-76
2022/03/03 02:54:32;;;;;;;22.30;12.68;;;;;;;0.53;62.42;94556.94;5072757;28;20111;-76
2022/03/03 02:59:41;;;;;;;21.05;13.98;;;;;;;0.60;61.77;94552.34;5073990;28;20169;-76
2022/03/03 03:02:06;;;;;;;20.80;14.77;;;;;;;0.49;62.18;94549.47;5071614;28;20024;-75
2022/03/03 03:04:32;;;;;;;20.05;13.88;;;;;;;0.56;62.64;94556.78;5071560;28;20046;-76
2022/03/03 03:06:57;;;;;;;21.52;13.95;;;;;;;0.51;62.49;94568.13;5038925;28;20032;-76
2022/03/03 03:09:23;;;;;;;22.48;13.88;;;;;;;0.51;61.95;94557.91;5071747;28;20032;-76
2022/03/03 03:11:48;;;;;;;22.48;14.15;;;;;;;0.44;62.11;94558.16;5054725;28;20024;-77
2022/03/03 03:14:13;;;;;;;23.58;15.27;;;;;;;0.38;62.11;94563.56;5071617;28;20044;-76
2022/03/03 03:16:39;;;;;;;23.00;14.77;;;;;;;0.41;62.49;94563.44;5082727;28;20032;-76
2022/03/03 03:19:04;;;;;;;19.48;13.35;;;;;;;0.37;62.67;94561.09;5091725;28;20036;-76
2022/03/03 03:21:29;;;;;;;21.75;13.68;;;;;;;0.35;62.41;94561.16;5091207;28;20024;-76
2022/03/03 03:23:55;;;;;;;19.30;13.50;;;;;;;0.34;62.73;94571.47;5090588;28;20024;-76
2022/03/03 03:26:20;;;;;;;20.70;14.05;;;;;;;0.28;63.16;94567.47;5057878;28;20051;-76
2022/03/03 03:28:46;;;;;;;19.65;13.88;;;;;;;0.27;63.33;94568.38;5070136;28;20427;-76
2022/03/03 03:31:11;;;;;;;36.92;20.50;;;;;;;0.25;63.05;94575.25;5070996;28;20028;-77
2022/03/03 03:33:37;;;;;;;23.00;14.70;;;;;;;0.26;63.46;94571.00;5071170;28;20028;-77
2022/03/03 03:36:02;;;;;;;21.63;14.70;;;;;;;0.28;62.76;94552.16;5077777;28;20291;-77
2022/03/03 03:38:28;;;;;;;20.48;14.02;;;;;;;0.19;62.78;94543.16;5090867;28;20113;-77
2022/03/03 03:40:53;;;;;;;19.52;13.82;;;;;;;0.30;63.37;94560.56;5057505;28;20032;-77
2022/03/03 03:43:18;;;;;;;18.15;13.07;;;;;;;0.36;63.09;94570.50;5091111;28;20028;-77
2022/03/03 03:45:44;;;;;;;20.70;13.98;;;;;;;0.31;62.54;94563.97;5083016;28;20491;-77
2022/03/03 03:48:09;;;;;;;20.73;15.65;;;;;;;0.28;63.27;94552.16;5053974;28;20032;-77
2022/03/03 03:50:35;;;;;;;26.15;15.98;;;;;;;0.31;63.33;94559.66;5072149;28;20434;-77
2022/03/03 03:53:00;;;;;;;22.25;14.20;;;;;;;0.29;63.78;94551.25;5071754;28;20024;-77
2022/03/03 03:55:26;;;;;;;25.92;14.80;;;;;;;0.32;63.32;94561.31;5086673;28;20040;-77
2022/03/03 03:57:52;;;;;;;22.83;15.60;;;;;;;0.34;63.39;94562.06;5090708;28;20134;-77
2022/03/03 04:00:17;;;;;;;23.50;14.50;;;;;;;0.25;63.62;94562.50;5090636;28;20046;-77
2022/03/03 04:02:43;;;;;;;24.90;14.85;;;;;;;0.24;63.13;94560.03;5073894;28;20496;-77
2022/03/03 04:05:09;;;;;;;22.60;15.25;;;;;;;0.12;63.82;94557.13;5054072;28;20102;-77
2022/03/03 04:07:35;;;;;;;24.02;14.13;;;;;;;0.15;63.16;94557.00;5037117;28;20449;-76
2022/03/03 04:10:00;;;;;;;21.40;13.73;;;;;;;0.20;63.44;94561.91;5036983;28;20035;-77
2022/03/03 04:12:25;;;;;;;23.13;15.52;;;;;;;0.26;63.20;94550.56;5073246;28;20051;-77
2022/03/03 04:14:52;;;;;;;22.95;14.55;;;;;;;0.29;63.13;94551.25;5066203;28;20048;-77
2022/03/03 04:17:17;;;;;;;21.60;14.77;;;;;;;0.35;62.89;94552.69;5071225;28;20044;-77
2022/03/03 04:19:42;;;;;;;24.27;13.30;;;;;;;0.32;62.85;94547.72;5070166;28;20510;-77
2022/03/03 04:22:08;;;;;;;21.98;14.52;;;;;;;0.28;62.92;94541.94;5063131;28;20474;-77
2022/03/03 04:24:33;;;;;;;22.17;14.93;;;;;;;0.27;62.74;94532.59;5070136;28;20032;-77
2022/03/03 04:26:59;;;;;;;22.15;14.20;;;;;;;0.22;63.04;94524.31;5071146;28;20548;-77
2022/03/03 04:29:24;;;;;;;23.73;15.20;;;;;;;0.23;63.12;94551.53;5071572;28;20028;-77
2022/03/03 04:31:51;;;;;;;25.52;16.25;;;;;;;0.26;62.81;94542.91;5069585;28;20029;-77
2022/03/03 04:34:17;;;;;;;21.50;15.32;;;;;;;0.38;62.58;94549.97;5069277;28;20542;-76
2022/03/03 04:36:42;;;;;;;26.42;14.95;;;;;;;0.31;62.70;94541.78;5054286;28;20040;-76
2022/03/03 04:39:08;;;;;;;22.05;15.27;;;;;;;0.35;62.87;94545.84;5069581;28;20044;-77
2022/03/03 04:41:33;;;;;;;26.17;17.08;;;;;;;0.39;63.21;94539.69;5069841;28;20026;-76
2022/03/03 04:43:58;;;;;;;25.17;16.20;;;;;;;0.41;62.79;94532.75;5077268;28;20031;-77
2022/03/03 04:46:24;;;;;;;25.42;15.65;;;;;;;0.37;62.75;94544.03;5089291;28;20063;-77
2022/03/03 04:48:49;;;;;;;23.05;14.80;;;;;;;0.24;62.28;94555.72;5073116;28;20028;-77
2022/03/03 04:51:15;;;;;;;25.50;14.63;;;;;;;0.27;62.79;94539.44;5091099;28;20035;-77
2022/03/03 04:53:40;;;;;;;22.42;14.50;;;;;;;0.33;63.06;94544.25;5090014;28;20062;-77
2022/03/03 04:56:06;;;;;;;24.63;14.95;;;;;;;0.23;62.59;94548.97;5075426;28;20031;-77
2022/03/03 04:58:31;;;;;;;21.88;13.68;;;;;;;0.15;62.84;94544.22;5069817;28;20032;-77
2022/03/03 05:00:57;;;;;;;22.30;14.10;;;;;;;0.12;62.80;94543.53;5070804;28;20032;-77
2022/03/03 05:03:22;;;;;;;25.50;14.82;;;;;;;0.11;63.34;94537.59;5070796;28;20414;-77
2022/03/03 05:05:48;;;;;;;22.92;14.95;;;;;;;0.02;62.61;94524.41;5070694;28;20032;-77
2022/03/03 05:08:13;;;;;;;22.50;14.23;;;;;;;0.15;63.28;94533.19;5071798;28;20371;-77
2022/03/03 05:10:38;;;;;;;21.70;14.20;;;;;;;0.20;62.91;94538.91;5052882;28;20556;-77
2022/03/03 05:13:04;;;;;;;24.10;15.13;;;;;;;0.10;63.21;94537.66;5069559;28;20040;-76
2022/03/03 05:15:29;;;;;;;23.05;14.20;;;;;;;0.07;63.37;94533.53;5061261;28;20040;-77
2022/03/03 05:17:55;;;;;;;21.23;14.02;;;;;;;0.06;63.50;94537.00;5069568;28;20115;-77
2022/03/03 05:20:21;;;;;;;24.63;14.48;;;;;;;0.04;63.54;94537.97;5052724;28;20032;-77
2022/03/03 05:22:46;;;;;;;23.33;14.50;;;;;;;0.05;63.58;94542.97;5069418;28;20071;-77
2022/03/03 05:25:12;;;;;;;24.23;14.43;;;;;;;0.13;64.13;94542.63;5036083;28;20123;-77
2022/03/03 05:27:39;;;;;;;32.50;20.38;;;;;;;0.06;63.90;94547.22;5069379;28;20036;-77
2022/03/03 05:30:07;;;;;;;28.42;16.60;;;;;;;0.17;63.98;94541.59;5083641;28;20503;-77
2022/03/03 05:32:33;;;;;;;21.65;14.20;;;;;;;0.20;64.00;94555.06;5072602;28;20028;-77
2022/03/03 05:34:58;;;;;;;26.17;15.70;;;;;;;0.22;63.57;94539.63;5065099;28;20052;-77
2022/03/03 05:37:24;;;;;;;24.00;14.30;;;;;;;0.19;63.53;94539.78;5073298;28;20035;-77
2022/03/03 05:39:51;;;;;;;28.17;14.82;;;;;;;0.03;63.89;94556.72;5081858;28;20052;-77
2022/03/03 05:42:18;;;;;;;21.00;13.20;;;;;;;-0.08;63.80;94545.28;5051121;28;20410;-76
2022/03/03 05:44:44;;;;;;;21.02;13.57;;;;;;;0.03;63.95;94551.59;5068426;28;20033;-77
2022/03/03 05:47:10;;;;;;;21.35;13.10;;;;;;;0.02;64.42;94550.78;5087063;28;20024;-77
2022/03/03 05:49:36;;;;;;;33.53;19.70;;;;;;;0.10;64.57;94548.72;5056124;28;20036;-77
2022/03/03 05:52:01;;;;;;;27.55;15.38;;;;;;;0.05;64.48;94534.50;5056306;28;20079;-77
2022/03/03 05:54:27;;;;;;;25.88;14.85;;;;;;;0.13;64.26;94550.28;5094308;28;20028;-76
2022/03/03 05:56:53;;;;;;;24.98;15.35;;;;;;;0.20;64.67;94556.78;5073572;28;20408;-77
2022/03/03 05:59:18;;;;;;;24.10;14.20;;;;;;;0.19;63.92;94555.94;5073165;28;20040;-77
2022/03/03 06:01:45;;;;;;;22.80;15.02;;;;;;;0.24;63.95;94560.84;5039370;28;20025;-76
2022/03/03 06:04:13;;;;;;;24.70;15.27;;;;;;;0.15;63.33;94558.72;5073984;28;20036;-77
2022/03/03 06:06:38;;;;;;;22.23;13.80;;;;;;;0.06;63.30;94556.59;5065816;28;20478;-79
2022/03/03 06:09:09;;;;;;;24.80;15.57;;;;;;;0.14;62.53;94555.34;5076423;28;20043;-78
2022/03/03 06:11:47;;;;;;;26.95;17.92;;;;;;;0.06;63.10;94551.50;5091166;28;20421;-77
2022/03/03 06:14:12;;;;;;;24.50;16.10;;;;;;;0.13;62.63;94553.66;5085225;28;20043;-79
2022/03/03 06:16:39;;;;;;;27.90;17.08;;;;;;;0.15;63.19;94551.88;5048141;28;20036;-80
2022/03/03 06:19:04;;;;;;;27.50;16.80;;;;;;;0.13;62.83;94546.00;5089312;28;20051;-78
2022/03/03 06:21:30;;;;;;;27.88;16.27;;;;;;;0.28;62.63;94548.75;5088530;28;20032;-79
2022/03/03 06:23:58;;;;;;;23.33;14.77;;;;;;;0.36;62.76;94555.19;5092425;28;20058;-77
2022/03/03 06:26:24;;;;;;;24.63;15.57;;;;;;;0.27;62.29;94542.81;5089992;28;20070;-76
2022/03/03 06:28:49;;;;;;;25.20;17.17;;;;;;;0.44;62.29;94553.06;5081050;28;20031;-77
2022/03/03 06:31:15;;;;;;;32.72;19.00;;;;;;;0.36;62.28;94528.78;5088879;28;20028;-77
2022/03/03 06:33:40;;;;;;;28.77;16.95;;;;;;;0.58;62.20;94549.03;5088787;28;20028;-77
2022/03/03 06:36:06;;;;;;;28.10;15.68;;;;;;;0.59;60.87;94531.06;5074522;28;20422;-77
2022/03/03 06:38:32;;;;;;;24.90;15.68;;;;;;;0.61;61.00;94543.75;5087821;28;20050;-77
2022/03/03 06:40:58;;;;;;;23.50;14.73;;;;;;;0.71;60.93;94549.28;5089935;28;20500;-77
2022/03/03 06:43:24;;;;;;;26.73;16.27;;;;;;;0.61;60.63;94542.06;5090175;28;20036;-77
2022/03/03 06:45:50;;;;;;;25.60;15.30;;;;;;;0.71;60.11;94547.53;5069481;28;20111;-77
2022/03/03 06:48:15;;;;;;;27.33;14.82;;;;;;;0.61;60.06;94549.72;5071523;28;20111;-76
2022/03/03 06:50:42;;;;;;;26.48;14.60;;;;;;;0.65;60.14;94560.63;5072761;28;20024;-77
2022/03/03 06:53:08;;;;;;;26.88;15.75;;;;;;;0.63;59.90;94559.84;5083700;28;20414;-77
2022/03/03 06:55:33;;;;;;;27.13;15.65;;;;;;;0.61;59.96;94564.22;5088250;28;20039;-76
2022/03/03 06:57:59;;;;;;;24.58;15.70;;;;;;;0.62;58.96;94568.44;5084114;28;20040;-75
2022/03/03 07:00:31;;;;;;;37.13;20.40;;;;;;;0.67;59.93;94563.94;5090127;28;20081;-74
2022/03/03 07:02:56;;;;;;;29.98;16.38;;;;;;;0.68;60.06;94560.47;5072657;28;20020;-76
2022/03/03 07:05:21;;;;;;;32.13;16.10;;;;;;;0.75;59.40;94561.81;5091048;28;20778;-76
2022/03/03 07:07:50;;;;;;;23.52;15.20;;;;;;;0.76;59.00;94562.66;5086030;28;20633;-76
2022/03/03 07:10:23;;;;;;;27.50;15.50;;;;;;;0.87;58.88;94568.09;5072258;28;20062;-76
2022/03/03 07:12:49;;;;;;;28.83;17.40;;;;;;;0.95;58.27;94567.69;5090570;28;20103;-76
2022/03/03 07:15:14;;;;;;;37.25;23.13;;;;;;;0.92;57.84;94568.69;5071626;28;20159;-76
2022/03/03 07:17:53;;;;;;;27.67;17.25;;;;;;;1.10;58.35;94560.09;5084900;28;20470;-76
2022/03/03 07:20:53;;;;;;;28.85;16.25;;;;;;;1.10;57.37;94567.75;5067763;28;20048;-76
2022/03/03 07:23:37;;;;;;;29.75;18.73;;;;;;;1.15;57.39;94564.97;5081581;28;20478;-76
2022/03/03 07:26:10;;;;;;;28.17;17.40;;;;;;;1.18;58.81;94564.00;5088933;28;20040;-76
2022/03/03 07:28:39;;;;;;;28.88;16.60;;;;;;;1.07;57.17;94560.25;5088173;28;20024;-76
2022/03/03 07:31:04;;;;;;;27.67;16.10;;;;;;;1.05;56.70;94558.66;5071996;28;20040;-76
2022/03/03 07:33:55;;;;;;;26.08;16.75;;;;;;;0.97;56.70;94560.78;5072725;28;20145;-76
2022/03/03 07:36:34;;;;;;;29.40;18.10;;;;;;;0.92;56.97;94563.56;5088432;28;20045;-76
2022/03/03 07:39:02;;;;;;;26.50;16.15;;;;;;;0.96;57.18;94559.94;5084415;28;20104;-76
2022/03/03 07:41:28;;;;;;;28.48;15.27;;;;;;;1.01;56.65;94554.63;5072094;28;20584;-76
2022/03/03 07:43:54;;;;;;;23.67;13.93;;;;;;;1.00;56.79;94550.38;5070114;28;20060;-77
2022/03/03 07:46:21;;;;;;;24.80;15.63;;;;;;;0.99;56.78;94546.19;5070309;28;20043;-76
2022/03/03 07:48:47;;;;;;;22.65;14.05;;;;;;;1.05;56.59;94543.31;5085793;28;20036;-77
2022/03/03 07:51:12;;;;;;;52.30;25.10;;;;;;;1.15;57.17;94548.81;5071548;28;20145;-76
2022/03/03 07:53:38;;;;;;;47.92;24.77;;;;;;;1.23;56.39;94550.06;5085961;28;20024;-76
2022/03/03 07:56:04;;;;;;;24.00;14.20;;;;;;;1.18;55.65;94549.47;5089720;28;20508;-76
2022/03/03 07:58:31;;;;;;;22.38;13.52;;;;;;;1.26;55.90;94551.66;5081549;28;20032;-76
2022/03/03 08:00:58;;;;;;;28.88;16.05;;;;;;;1.26;56.42;94547.34;5072579;28;20033;-76
2022/03/03 08:03:25;;;;;;;25.77;14.45;;;;;;;1.33;55.74;94558.09;5084452;28;20042;-76
2022/03/03 08:05:51;;;;;;;22.77;14.45;;;;;;;1.39;55.59;94556.97;5087903;28;20070;-76
2022/03/03 08:08:23;;;;;;;25.67;14.90;;;;;;;1.42;55.99;94556.81;5085784;28;20463;-76
2022/03/03 08:10:48;;;;;;;24.70;14.70;;;;;;;1.44;55.88;94560.13;5087908;28;20032;-76
2022/03/03 08:13:16;;;;;;;34.47;20.02;;;;;;;1.47;56.22;94554.84;5071502;28;20132;-76
2022/03/03 08:15:45;;;;;;;33.33;19.05;;;;;;;1.46;55.16;94558.31;5054590;28;20190;-76
2022/03/03 08:18:11;;;;;;;31.40;18.52;;;;;;;1.50;55.39;94554.69;5052145;28;20046;-76
2022/03/03 08:20:38;;;;;;;24.65;16.55;;;;;;;1.52;56.21;94560.56;5053901;28;20036;-77
2022/03/03 08:23:03;;;;;;;25.33;17.10;;;;;;;1.46;54.40;94553.19;5070750;28;20028;-76
2022/03/03 08:25:29;;;;;;;29.98;19.25;;;;;;;1.53;54.98;94554.50;5087810;28;20506;-76
2022/03/03 08:27:54;;;;;;;24.85;15.95;;;;;;;1.52;54.95;94558.81;5088078;28;20046;-76
2022/03/03 08:30:20;;;;;;;30.08;18.70;;;;;;;1.51;54.72;94549.50;5087395;28;20034;-77
2022/03/03 08:32:57;;;;;;;30.48;20.10;;;;;;;1.55;56.10;94552.72;5088908;28;20028;-77
2022/03/03 08:35:22;;;;;;;36.85;22.17;;;;;;;1.67;56.16;94559.78;5071648;28;20526;-75
2022/03/03 08:37:58;;;;;;;30.70;20.20;;;;;;;1.62;54.58;94553.25;5071863;28;20030;-76
2022/03/03 08:40:24;;;;;;;29.27;18.58;;;;;;;1.66;54.78;94558.09;5073396;28;20094;-76
2022/03/03 08:42:56;;;;;;;29.17;18.85;;;;;;;1.59;54.84;94550.81;5066631;28;20415;-76
2022/03/03 08:45:22;;;;;;;42.75;22.33;;;;;;;1.72;55.33;94557.78;5071538;28;20481;-76
2022/03/03 08:48:02;;;;;;;40.35;23.15;;;;;;;1.71;54.87;94557.88;5070615;28;20579;-76
2022/03/03 08:50:28;;;;;;;33.67;18.40;;;;;;;1.85;55.62;94559.72;5087150;28;20456;-76
2022/03/03 08:52:57;;;;;;;28.48;15.45;;;;;;;1.83;54.34;94551.28;5045594;28;20252;-76
2022/03/03 08:55:22;;;;;;;30.40;18.45;;;;;;;1.91;53.71;94551.69;5059590;28;20459;-75
2022/03/03 08:57:48;;;;;;;31.35;18.20;;;;;;;2.04;54.29;94545.00;5082846;28;20054;-76
2022/03/03 09:00:14;;;;;;;29.35;18.40;;;;;;;2.01;53.75;94546.00;5088656;28;20490;-76
2022/03/03 09:02:43;;;;;;;26.63;16.77;;;;;;;2.13;53.77;94549.63;5067440;28;20025;-76
2022/03/03 09:05:09;;;;;;;36.55;23.50;;;;;;;2.10;53.68;94549.81;5072184;28;20043;-76
2022/03/03 09:07:34;;;;;;;23.20;15.45;;;;;;;2.13;53.72;94549.63;5067710;28;20031;-76
2022/03/03 09:10:00;;;;;;;24.40;16.13;;;;;;;2.09;53.58;94548.16;5089843;28;20036;-76
2022/03/03 09:12:25;;;;;;;26.00;15.00;;;;;;;2.08;53.93;94537.97;5070143;28;20039;-76
2022/03/03 09:14:51;;;;;;;22.40;14.57;;;;;;;2.06;53.51;94550.88;5088290;28;20407;-76
2022/03/03 09:17:16;;;;;;;25.33;15.70;;;;;;;2.13;53.68;94544.50;5087054;28;20506;-76
2022/03/03 09:19:42;;;;;;;39.80;22.85;;;;;;;2.15;53.34;94547.81;5086187;28;20036;-76
2022/03/03 09:22:07;;;;;;;28.02;17.17;;;;;;;2.28;54.09;94542.03;5090439;28;20030;-76
2022/03/03 09:24:33;;;;;;;43.22;22.88;;;;;;;2.28;53.40;94542.03;5074238;28;20028;-76
2022/03/03 09:26:58;;;;;;;29.65;17.35;;;;;;;2.09;53.29;94531.94;5088557;28;20093;-76
2022/03/03 09:29:24;;;;;;;28.23;18.10;;;;;;;2.27;52.50;94545.50;5092225;28;20028;-76
2022/03/03 09:31:49;;;;;;;30.17;18.65;;;;;;;2.38;53.37;94546.56;5084608;28;20036;-76
2022/03/03 09:34:15;;;;;;;28.77;17.75;;;;;;;2.39;52.24;94535.38;5074689;28;20110;-76
2022/03/03 09:36:40;;;;;;;28.58;17.90;;;;;;;2.53;52.74;94542.31;5086767;28;20028;-75
2022/03/03 09:39:06;;;;;;;24.52;14.75;;;;;;;2.59;52.48;94536.88;5091799;28;20036;-75
2022/03/03 09:41:31;;;;;;;22.60;13.50;;;;;;;2.68;52.05;94533.78;5087002;28;20046;-76
2022/03/03 09:43:57;;;;;;;22.55;14.45;;;;;;;2.75;52.84;94541.13;5075160;28;20114;-75
2022/03/03 09:46:22;;;;;;;34.97;18.25;;;;;;;2.72;51.84;94536.16;5086970;28;20059;-76
2022/03/03 09:48:48;;;;;;;27.63;16.25;;;;;;;2.76;52.11;94535.06;5082310;28;20025;-76
2022/03/03 09:51:13;;;;;;;19.15;12.98;;;;;;;2.88;52.38;94522.38;5062964;28;20033;-76
2022/03/03 09:53:40;;;;;;;22.38;13.38;;;;;;;2.96;51.38;94534.78;5084154;28;20024;-79
2022/03/03 09:56:05;;;;;;;20.63;13.40;;;;;;;2.96;50.64;94537.34;5063936;28;20051;-79
2022/03/03 09:58:31;;;;;;;19.40;12.50;;;;;;;2.89;49.79;94533.47;5091035;28;20036;-74
2022/03/03 10:00:56;;;;;;;27.60;16.13;;;;;;;2.90;50.29;94530.81;5071976;28;20501;-78
2022/03/03 10:03:22;;;;;;;22.27;13.68;;;;;;;3.09;50.43;94529.75;5080480;28;20051;-79
2022/03/03 10:05:51;;;;;;;24.00;14.23;;;;;;;3.16;50.78;94522.53;5070400;28;20037;-78
2022/03/03 10:08:17;;;;;;;23.00;13.77;;;;;;;3.28;49.94;94525.19;5076554;28;20036;-79
2022/03/03 10:10:45;;;;;;;21.23;14.68;;;;;;;3.43;50.35;94508.06;5087412;28;20112;-78
2022/03/03 10:13:10;;;;;;;21.45;14.30;;;;;;;3.66;49.55;94526.41;5083003;28;20024;-85
2022/03/03 10:15:36;;;;;;;26.77;16.58;;;;;;;3.77;48.85;94526.59;5043653;28;20115;-78
2022/03/03 10:18:06;;;;;;;20.95;14.52;;;;;;;3.83;48.66;94525.38;5071938;28;20437;-77
2022/03/03 10:20:37;;;;;;;22.20;15.15;;;;;;;3.87;48.47;94521.69;5075314;28;20032;-77
2022/03/03 10:23:04;;;;;;;32.90;17.58;;;;;;;4.00;49.85;94527.75;5077803;28;20036;-77
2022/03/03 10:25:34;;;;;;;23.40;15.45;;;;;;;3.95;47.90;94525.44;5067382;28;20024;-81
2022/03/03 10:28:26;;;;;;;21.15;12.18;;;;;;;4.00;48.83;94528.56;5078128;28;20043;-77
2022/03/03 10:30:57;;;;;;;25.98;15.15;;;;;;;3.95;48.47;94533.16;5084902;28;20040;-82
2022/03/03 10:33:28;;;;;;;17.08;11.82;;;;;;;3.72;47.30;94526.84;5088088;28;20024;-81
2022/03/03 10:36:04;;;;;;;22.15;13.65;;;;;;;3.66;48.71;94539.25;5090760;28;20127;-78
2022/03/03 10:38:29;;;;;;;20.95;13.52;;;;;;;3.55;49.39;94525.31;5080746;28;20040;-79
2022/03/03 10:40:55;;;;;;;20.45;13.52;;;;;;;3.62;50.05;94524.94;5087884;28;20028;-83
2022/03/03 10:43:20;;;;;;;22.80;15.02;;;;;;;3.47;49.36;94524.13;5089539;28;20073;-79
2022/03/03 10:45:59;;;;;;;17.77;12.15;;;;;;;3.49;49.54;94504.31;5088262;28;20036;-76
2022/03/03 10:48:28;;;;;;;22.65;14.15;;;;;;;3.45;49.70;94489.97;5086332;28;20028;-78
2022/03/03 10:50:54;;;;;;;20.75;11.80;;;;;;;3.56;50.72;94503.81;5069544;28;20032;-81
2022/03/03 10:53:21;;;;;;;21.98;15.15;;;;;;;3.62;49.75;94500.06;5064506;28;20124;-81
2022/03/03 10:55:59;;;;;;;22.88;15.20;;;;;;;3.51;49.57;94503.31;5086287;28;20044;-81
2022/03/03 10:58:45;;;;;;;37.80;21.08;;;;;;;3.44;48.49;94499.44;5081960;28;20029;-76
2022/03/03 11:01:11;;;;;;;48.40;22.35;;;;;;;3.33;49.90;94487.22;5089952;28;20556;-75
2022/03/03 11:03:37;;;;;;;33.25;17.67;;;;;;;3.51;49.15;94505.88;5064212;28;20116;-77
2022/03/03 11:06:06;;;;;;;51.45;23.50;;;;;;;3.43;49.05;94491.84;5068575;28;20036;-74
2022/03/03 11:08:31;;;;;;;43.30;21.55;;;;;;;3.52;49.20;94522.09;5057789;28;20028;-75
2022/03/03 11:10:57;;;;;;;32.90;17.38;;;;;;;3.44;49.20;94514.84;5068914;28;20036;-77
2022/03/03 11:13:23;;;;;;;47.03;22.20;;;;;;;3.44;48.69;94507.13;5082282;28;20020;-74
2022/03/03 11:15:49;;;;;;;32.00;17.40;;;;;;;3.47;50.13;94506.94;5060140;28;20046;-75
2022/03/03 11:18:18;;;;;;;29.48;18.10;;;;;;;3.26;49.52;94490.25;5042802;28;20064;-74
2022/03/03 11:20:45;;;;;;;20.38;13.10;;;;;;;3.40;50.09;94497.97;5090197;28;20036;-75
2022/03/03 11:23:11;;;;;;;27.83;14.85;;;;;;;3.38;49.38;94510.06;5083886;28;20510;-74
2022/03/03 11:25:36;;;;;;;25.65;14.93;;;;;;;3.34;49.32;94512.00;5064153;28;20040;-74